createdAt,value
2023-08-06T00:00:01.764Z,9.678221
2023-08-06T00:01:01.891Z,9.678212
2023-08-06T00:02:01.670Z,9.678206
2023-08-06T00:03:01.760Z,9.678185
2023-08-06T00:04:01.657Z,9.678169
2023-08-06T00:05:01.675Z,9.678190
2023-08-06T00:06:01.623Z,9.678167
2023-08-06T00:07:01.626Z,9.678155
2023-08-06T00:08:01.608Z,9.678180
2023-08-06T00:09:01.666Z,9.678209
2023-08-06T00:10:01.595Z,9.678196
2023-08-06T00:11:01.625Z,9.678185
2023-08-06T00:12:01.571Z,9.678241
2023-08-06T00:13:01.623Z,9.678169
2023-08-06T00:14:01.585Z,9.678178
2023-08-06T00:15:01.616Z,9.678183
2023-08-06T00:16:01.548Z,9.678157
2023-08-06T00:17:01.637Z,9.678154
2023-08-06T00:18:01.570Z,9.678188
2023-08-06T00:19:01.541Z,9.678139
2023-08-06T00:20:01.543Z,9.678147
2023-08-06T00:21:01.561Z,9.678186
2023-08-06T00:22:01.498Z,9.678137
2023-08-06T00:23:01.529Z,9.678189
2023-08-06T00:24:01.484Z,9.678171
2023-08-06T00:25:01.493Z,9.678186
2023-08-06T00:26:01.476Z,9.678146
2023-08-06T00:27:01.488Z,9.678115
2023-08-06T00:28:01.457Z,9.678155
2023-08-06T00:29:01.463Z,9.678157
2023-08-06T00:30:01.462Z,9.678144
2023-08-06T00:31:01.452Z,9.678123
2023-08-06T00:32:01.412Z,9.678149
2023-08-06T00:33:01.503Z,9.678180
2023-08-06T00:34:01.392Z,9.678133
2023-08-06T00:35:01.374Z,9.678141
2023-08-06T00:36:01.409Z,9.678144
2023-08-06T00:37:01.356Z,9.678153
2023-08-06T00:38:01.373Z,9.678131
2023-08-06T00:39:01.358Z,9.678105
2023-08-06T00:40:01.416Z,9.678114
2023-08-06T00:41:01.319Z,9.678106
2023-08-06T00:42:01.323Z,9.678112
2023-08-06T00:43:01.426Z,9.678134
2023-08-06T00:44:01.393Z,9.678137
2023-08-06T00:45:01.370Z,9.678108
2023-08-06T00:46:01.376Z,9.678149
2023-08-06T00:47:01.365Z,9.678126
2023-08-06T00:48:01.323Z,9.678146
2023-08-06T00:49:01.304Z,9.678102
2023-08-06T00:50:01.328Z,9.678140
2023-08-06T00:51:01.253Z,9.678116
2023-08-06T00:52:01.267Z,9.678080
2023-08-06T00:53:01.234Z,9.678128
2023-08-06T00:54:01.292Z,9.678133
2023-08-06T00:55:01.253Z,9.678147
2023-08-06T00:56:01.240Z,9.678143
2023-08-06T00:57:01.245Z,9.678138
2023-08-06T00:58:01.210Z,9.678148
2023-08-06T00:59:01.227Z,9.678079
2023-08-06T01:00:01.259Z,9.678102
2023-08-06T01:01:01.209Z,9.678090
2023-08-06T01:02:01.185Z,9.678074
2023-08-06T01:03:01.163Z,9.678124
2023-08-06T01:04:01.143Z,9.678131
2023-08-06T01:05:01.109Z,9.678103
2023-08-06T01:06:01.209Z,9.678134
2023-08-06T01:07:01.145Z,9.678101
2023-08-06T01:08:01.101Z,9.678113
2023-08-06T01:09:01.068Z,9.678181
2023-08-06T01:10:01.114Z,9.678166
2023-08-06T01:11:01.052Z,9.678145
2023-08-06T01:12:01.169Z,9.678140
2023-08-06T01:13:01.032Z,9.678119
2023-08-06T01:14:01.058Z,9.678104
2023-08-06T01:15:01.041Z,9.678098
2023-08-06T01:16:01.146Z,9.678102
2023-08-06T01:17:01.009Z,9.678131
2023-08-06T01:18:01.095Z,9.678041
2023-08-06T01:19:01.050Z,9.678139
2023-08-06T01:20:00.996Z,9.678175
2023-08-06T01:21:01.041Z,9.678123
2023-08-06T01:22:01.002Z,9.678096
2023-08-06T01:23:01.038Z,9.678126
2023-08-06T01:24:00.981Z,9.678111
2023-08-06T01:25:01.060Z,9.678059
2023-08-06T01:26:00.952Z,9.678141
2023-08-06T01:27:01.011Z,9.678082
2023-08-06T01:28:00.929Z,9.678104
2023-08-06T01:29:01.046Z,9.678123
2023-08-06T01:30:01.156Z,9.678104
2023-08-06T01:31:00.942Z,9.678132
2023-08-06T01:32:00.904Z,9.678066
2023-08-06T01:33:00.891Z,9.678093
2023-08-06T01:34:00.883Z,9.678111
2023-08-06T01:35:00.908Z,9.678128
2023-08-06T01:36:00.864Z,9.678066
2023-08-06T01:37:00.849Z,9.678117
2023-08-06T01:38:00.877Z,9.678118
2023-08-06T01:39:00.834Z,9.678115
2023-08-06T01:40:00.845Z,9.678094
2023-08-06T01:41:00.857Z,9.678109
2023-08-06T01:42:00.829Z,9.678098
2023-08-06T01:43:00.792Z,9.678093
2023-08-06T01:44:00.819Z,9.678046
2023-08-06T01:45:00.827Z,9.678085
2023-08-06T01:46:00.857Z,9.678147
2023-08-06T01:47:00.809Z,9.678085
2023-08-06T01:48:00.940Z,9.678089
2023-08-06T01:49:00.769Z,9.678094
2023-08-06T01:50:00.747Z,9.678043
2023-08-06T01:51:00.731Z,9.677988
2023-08-06T01:52:00.765Z,9.678065
2023-08-06T01:53:00.700Z,9.678083
2023-08-06T01:54:00.679Z,9.678146
2023-08-06T01:55:00.688Z,9.678158
2023-08-06T01:56:00.724Z,9.678079
2023-08-06T01:57:00.675Z,9.678089
2023-08-06T01:58:00.754Z,9.678004
2023-08-06T01:59:02.545Z,9.678081
2023-08-06T02:00:01.297Z,9.677989
2023-08-06T02:01:00.612Z,9.677989
2023-08-06T02:02:00.628Z,9.678054
2023-08-06T02:03:00.634Z,9.678001
2023-08-06T02:04:00.700Z,9.678049
2023-08-06T02:05:00.628Z,9.678123
2023-08-06T02:06:00.616Z,9.678226
2023-08-06T02:07:00.617Z,9.678087
2023-08-06T02:12:02.286Z,9.678047
2023-08-06T02:13:02.284Z,9.678057
2023-08-06T02:14:02.238Z,9.678118
2023-08-06T02:15:02.202Z,9.678150
2023-08-06T02:16:02.281Z,9.678070
2023-08-06T02:17:02.183Z,9.678114
2023-08-06T02:18:02.230Z,9.678083
2023-08-06T02:19:02.175Z,9.678147
2023-08-06T02:20:02.253Z,9.678164
2023-08-06T02:21:02.150Z,9.678066
2023-08-06T02:22:02.240Z,9.678074
2023-08-06T02:23:02.141Z,9.678089
2023-08-06T02:24:02.182Z,9.678082
2023-08-06T02:25:02.133Z,9.678093
2023-08-06T02:26:02.136Z,9.678044
2023-08-06T02:27:02.168Z,9.678040
2023-08-06T02:28:02.135Z,9.678050
2023-08-06T02:29:02.075Z,9.678082
2023-08-06T02:30:02.074Z,9.678124
2023-08-06T02:31:02.125Z,9.678104
2023-08-06T02:32:02.077Z,9.678084
2023-08-06T02:33:02.149Z,9.678011
2023-08-06T02:34:02.059Z,9.678104
2023-08-06T02:35:02.190Z,9.678098
2023-08-06T02:36:02.025Z,9.678100
2023-08-06T02:37:02.029Z,9.678072
2023-08-06T02:38:02.047Z,9.678082
2023-08-06T02:39:02.008Z,9.678052
2023-08-06T02:40:02.027Z,9.678080
2023-08-06T02:41:01.984Z,9.678067
2023-08-06T02:42:02.005Z,9.678018
2023-08-06T02:43:01.972Z,9.678002
2023-08-06T02:44:01.995Z,9.678102
2023-08-06T02:45:01.996Z,9.678120
2023-08-06T02:46:02.069Z,9.678131
2023-08-06T02:47:01.933Z,9.678116
2023-08-06T02:48:02.160Z,9.678180
2023-08-06T02:49:01.976Z,9.678168
2023-08-06T02:50:02.011Z,9.678194
2023-08-06T02:51:01.896Z,9.678119
2023-08-06T02:52:01.896Z,9.678117
2023-08-06T02:53:01.928Z,9.678141
2023-08-06T02:54:01.889Z,9.678150
2023-08-06T02:55:01.840Z,9.678097
2023-08-06T02:56:01.918Z,9.678129
2023-08-06T02:57:01.878Z,9.678144
2023-08-06T02:58:01.862Z,9.678136
2023-08-06T02:59:01.893Z,9.678127
2023-08-06T03:00:01.806Z,9.678135
2023-08-06T03:01:01.824Z,9.678135
2023-08-06T03:02:01.819Z,9.678143
2023-08-06T03:03:01.842Z,9.678114
2023-08-06T03:04:01.794Z,9.678111
2023-08-06T03:05:01.821Z,9.678081
2023-08-06T03:06:01.797Z,9.678128
2023-08-06T03:07:01.799Z,9.678141
2023-08-06T03:08:01.823Z,9.678107
2023-08-06T03:09:01.742Z,9.678133
2023-08-06T03:10:01.812Z,9.678170
2023-08-06T03:11:01.732Z,9.678141
2023-08-06T03:12:01.720Z,9.678119
2023-08-06T03:13:01.702Z,9.678127
2023-08-06T03:14:01.736Z,9.678138
2023-08-06T03:15:01.683Z,9.678127
2023-08-06T03:16:01.690Z,9.678164
2023-08-06T03:17:01.824Z,9.678164
2023-08-06T03:18:01.715Z,9.678227
2023-08-06T03:19:01.720Z,9.678209
2023-08-06T03:20:01.690Z,9.678175
2023-08-06T03:21:01.698Z,9.678167
2023-08-06T03:22:01.636Z,9.678107
2023-08-06T03:23:01.605Z,9.678104
2023-08-06T03:24:01.628Z,9.678134
2023-08-06T03:25:01.668Z,9.678119
2023-08-06T03:26:01.619Z,9.678128
2023-08-06T03:27:01.595Z,9.678160
2023-08-06T03:28:01.575Z,9.678196
2023-08-06T03:29:01.569Z,9.678184
2023-08-06T03:30:01.565Z,9.678163
2023-08-06T03:31:01.624Z,9.678113
2023-08-06T03:32:01.625Z,9.678146
2023-08-06T03:33:01.553Z,9.678132
2023-08-06T03:34:01.544Z,9.678149
2023-08-06T03:35:01.564Z,9.678144
2023-08-06T03:36:01.637Z,9.678131
2023-08-06T03:37:01.501Z,9.678093
2023-08-06T03:38:01.497Z,9.678093
2023-08-06T03:39:01.573Z,9.678152
2023-08-06T03:40:01.482Z,9.678143
2023-08-06T03:41:01.525Z,9.678102
2023-08-06T03:42:01.493Z,9.678126
2023-08-06T03:43:01.457Z,9.678165
2023-08-06T03:44:01.447Z,9.678152
2023-08-06T03:45:01.540Z,9.678153
2023-08-06T03:46:01.490Z,9.678151
2023-08-06T03:47:01.495Z,9.678123
2023-08-06T03:48:01.451Z,9.678140
2023-08-06T03:49:01.406Z,9.678094
2023-08-06T03:50:01.413Z,9.678094
2023-08-06T03:51:01.455Z,9.678103
2023-08-06T03:52:01.407Z,9.678097
2023-08-06T03:53:01.454Z,9.678106
2023-08-06T03:54:01.382Z,9.678118
2023-08-06T03:55:01.362Z,9.678105
2023-08-06T03:56:01.350Z,9.678108
2023-08-06T03:57:01.327Z,9.678103
2023-08-06T03:58:01.370Z,9.678107
2023-08-06T03:59:01.348Z,9.678057
2023-08-06T04:00:01.524Z,9.678067
2023-08-06T04:01:01.391Z,9.678050
2023-08-06T04:02:01.322Z,9.678033
2023-08-06T04:03:01.425Z,9.678018
2023-08-06T04:04:02.243Z,9.678049
2023-08-06T04:05:01.303Z,9.678042
2023-08-06T04:06:01.263Z,9.678136
2023-08-06T04:07:01.419Z,9.678072
2023-08-06T04:08:01.249Z,9.678112
2023-08-06T04:09:01.248Z,9.678124
2023-08-06T04:10:01.270Z,9.678086
2023-08-06T04:11:01.318Z,9.678015
2023-08-06T04:12:01.273Z,9.678090
2023-08-06T04:13:01.186Z,9.678075
2023-08-06T04:14:01.198Z,9.678087
2023-08-06T04:15:01.223Z,9.678089
2023-08-06T04:16:01.177Z,9.678072
2023-08-06T04:17:01.257Z,9.677967
2023-08-06T04:18:01.245Z,9.677988
2023-08-06T04:19:01.187Z,9.678041
2023-08-06T04:20:01.208Z,9.678092
2023-08-06T04:21:01.184Z,9.678120
2023-08-06T04:22:01.226Z,9.678088
2023-08-06T04:23:01.196Z,9.678083
2023-08-06T04:24:01.150Z,9.678117
2023-08-06T04:25:01.127Z,9.678088
2023-08-06T04:26:01.219Z,9.678075
2023-08-06T04:27:01.096Z,9.678143
2023-08-06T04:28:01.087Z,9.678102
2023-08-06T04:29:01.078Z,9.678128
2023-08-06T04:30:01.085Z,9.678100
2023-08-06T04:31:01.165Z,9.678059
2023-08-06T04:32:01.134Z,9.678055
2023-08-06T04:33:01.083Z,9.678103
2023-08-06T04:34:01.085Z,9.678130
2023-08-06T04:35:01.015Z,9.678165
2023-08-06T04:36:01.036Z,9.678137
2023-08-06T04:37:01.000Z,9.678147
2023-08-06T04:38:01.026Z,9.678129
2023-08-06T04:39:00.979Z,9.678058
2023-08-06T04:40:01.006Z,9.678081
2023-08-06T04:41:01.080Z,9.678098
2023-08-06T04:42:00.971Z,9.678115
2023-08-06T04:43:01.008Z,9.678093
2023-08-06T04:44:00.985Z,9.678084
2023-08-06T04:45:01.058Z,9.678123
2023-08-06T04:46:00.951Z,9.678108
2023-08-06T04:47:00.947Z,9.678040
2023-08-06T04:48:00.990Z,9.678071
2023-08-06T04:49:00.952Z,9.678067
2023-08-06T04:50:00.940Z,9.678097
2023-08-06T04:51:00.909Z,9.678057
2023-08-06T04:52:00.886Z,9.678123
2023-08-06T04:53:00.895Z,9.678115
2023-08-06T04:54:00.906Z,9.678207
2023-08-06T04:55:00.917Z,9.678101
2023-08-06T04:56:00.865Z,9.678081
2023-08-06T04:57:00.859Z,9.678158
2023-08-06T04:58:00.847Z,9.678105
2023-08-06T04:59:00.921Z,9.678103
2023-08-06T05:00:00.874Z,9.678079
2023-08-06T05:01:00.843Z,9.678102
2023-08-06T05:02:00.840Z,9.678140
2023-08-06T05:03:01.707Z,9.678184
2023-08-06T05:04:00.828Z,9.678114
2023-08-06T05:05:00.972Z,9.678137
2023-08-06T05:06:00.797Z,9.678115
2023-08-06T05:07:03.044Z,9.678152
2023-08-06T05:08:00.757Z,9.678144
2023-08-06T05:09:00.754Z,9.678133
2023-08-06T05:10:00.762Z,9.678083
2023-08-06T05:11:00.737Z,9.678102
2023-08-06T05:12:00.733Z,9.678042
2023-08-06T05:13:00.738Z,9.678082
2023-08-06T05:14:00.717Z,9.678126
2023-08-06T05:15:00.787Z,9.678089
2023-08-06T05:16:00.735Z,9.678093
2023-08-06T05:17:01.040Z,9.678139
2023-08-06T05:18:00.685Z,9.678075
2023-08-06T05:19:00.691Z,9.678104
2023-08-06T05:20:00.654Z,9.678064
2023-08-06T05:21:00.669Z,9.678057
2023-08-06T05:22:00.846Z,9.678074
2023-08-06T05:23:00.644Z,9.678077
2023-08-06T05:24:00.656Z,9.678017
2023-08-06T05:25:00.687Z,9.678079
2023-08-06T05:26:00.604Z,9.678069
2023-08-06T05:27:00.607Z,9.678110
2023-08-06T05:28:00.628Z,9.678079
2023-08-06T05:29:01.483Z,9.678086
2023-08-06T05:30:00.637Z,9.678090
2023-08-06T05:31:00.595Z,9.678084
2023-08-06T05:32:00.612Z,9.678151
2023-08-06T05:33:00.596Z,9.678148
2023-08-06T05:34:00.546Z,9.678123
2023-08-06T05:35:00.556Z,9.678102
2023-08-06T05:36:00.533Z,9.678099
2023-08-06T05:37:00.514Z,9.678118
2023-08-06T05:38:00.624Z,9.678101
2023-08-06T05:39:00.498Z,9.678077
2023-08-06T05:40:00.525Z,9.678099
2023-08-06T05:41:00.481Z,9.678082
2023-08-06T05:42:00.762Z,9.678069
2023-08-06T05:43:00.481Z,9.678103
2023-08-06T05:44:03.356Z,9.678102
2023-08-06T05:45:00.438Z,9.678080
2023-08-06T05:46:00.683Z,9.678079
2023-08-06T05:47:01.247Z,9.678091
2023-08-06T05:48:00.486Z,9.678065
2023-08-06T05:49:00.448Z,9.678119
2023-08-06T05:50:01.142Z,9.678086
2023-08-06T05:51:00.928Z,9.678103
2023-08-06T05:52:00.427Z,9.678090
2023-08-06T05:53:02.057Z,9.678121
2023-08-06T05:54:00.374Z,9.678118
2023-08-06T05:55:01.030Z,9.678125
2023-08-06T05:56:00.514Z,9.678102
2023-08-06T05:57:00.443Z,9.678118
2023-08-06T05:58:00.381Z,9.678073
2023-08-06T05:59:00.330Z,9.678066
2023-08-06T06:00:00.326Z,9.678092
2023-08-06T06:01:00.310Z,9.678101
2023-08-06T06:02:00.295Z,9.678081
2023-08-06T06:03:00.401Z,9.678068
2023-08-06T06:04:00.363Z,9.678092
2023-08-06T06:05:00.432Z,9.678082
2023-08-06T06:06:00.265Z,9.678097
2023-08-06T06:07:00.257Z,9.678104
2023-08-06T06:08:00.834Z,9.678115
2023-08-06T06:09:01.377Z,9.678097
2023-08-06T06:10:02.859Z,9.678081
2023-08-06T06:11:00.228Z,9.678099
2023-08-06T06:12:00.208Z,9.678100
2023-08-06T06:13:00.192Z,9.678144
2023-08-06T06:14:00.287Z,9.678077
2023-08-06T06:15:00.561Z,9.678107
2023-08-06T06:16:00.259Z,9.678124
2023-08-06T06:17:00.160Z,9.678136
2023-08-06T06:18:00.200Z,9.678082
2023-08-06T06:19:07.682Z,9.678103
2023-08-06T06:20:00.254Z,9.678131
2023-08-06T06:21:00.121Z,9.678067
2023-08-06T06:22:00.120Z,9.678061
2023-08-06T06:23:00.096Z,9.678144
2023-08-06T06:24:00.108Z,9.678087
2023-08-06T06:25:00.149Z,9.678097
2023-08-06T06:26:00.117Z,9.678108
2023-08-06T06:27:00.064Z,9.678094
2023-08-06T06:28:00.057Z,9.678102
2023-08-06T06:29:00.060Z,9.678076
2023-08-06T06:30:00.031Z,9.678098
2023-08-06T06:31:00.082Z,9.678105
2023-08-06T06:32:00.581Z,9.678118
2023-08-06T06:33:00.043Z,9.678087
2023-08-06T06:34:00.003Z,9.678071
2023-08-06T06:35:00.036Z,9.678107
2023-08-06T06:35:59.993Z,9.678086
2023-08-06T06:37:00.185Z,9.678105
2023-08-06T06:37:59.979Z,9.678093
2023-08-06T06:39:00.091Z,9.678086
2023-08-06T06:39:59.952Z,9.678097
2023-08-06T06:40:59.959Z,9.678082
2023-08-06T06:41:59.967Z,9.678046
2023-08-06T06:42:59.922Z,9.678110
2023-08-06T06:44:00.607Z,9.678089
2023-08-06T06:44:59.946Z,9.678081
2023-08-06T06:45:59.960Z,9.678033
2023-08-06T06:46:59.904Z,9.677976
2023-08-06T06:47:59.909Z,9.678083
2023-08-06T06:48:59.881Z,9.678115
2023-08-06T06:49:59.864Z,9.678131
2023-08-06T06:50:59.861Z,9.678138
2023-08-06T06:51:59.836Z,9.678089
2023-08-06T06:52:59.886Z,9.678098
2023-08-06T06:54:00.758Z,9.678087
2023-08-06T06:54:59.823Z,9.678061
2023-08-06T06:55:59.799Z,9.678082
2023-08-06T06:56:59.877Z,9.678092
2023-08-06T06:57:59.877Z,9.678080
2023-08-06T06:58:59.809Z,9.678090
2023-08-06T06:59:59.783Z,9.678122
2023-08-06T07:00:59.834Z,9.678080
2023-08-06T07:01:59.856Z,9.678085
2023-08-06T07:03:00.023Z,9.678032
2023-08-06T07:03:59.959Z,9.678079
2023-08-06T07:04:59.835Z,9.678059
2023-08-06T07:05:59.973Z,9.678024
2023-08-06T07:06:59.744Z,9.678110
2023-08-06T07:07:59.696Z,9.678128
2023-08-06T07:09:00.227Z,9.678067
2023-08-06T07:09:59.690Z,9.678058
2023-08-06T07:10:59.710Z,9.678127
2023-08-06T07:11:59.719Z,9.678138
2023-08-06T07:12:59.677Z,9.678082
2023-08-06T07:13:59.664Z,9.678050
2023-08-06T07:14:59.656Z,9.678064
2023-08-06T07:15:59.656Z,9.678075
2023-08-06T07:16:59.667Z,9.678111
2023-08-06T07:17:59.649Z,9.678107
2023-08-06T07:18:59.638Z,9.678098
2023-08-06T07:20:00.088Z,9.678106
2023-08-06T07:20:59.608Z,9.678097
2023-08-06T07:21:59.609Z,9.678083
2023-08-06T07:22:59.599Z,9.678091
2023-08-06T07:23:59.808Z,9.678083
2023-08-06T07:24:59.569Z,9.678056
2023-08-06T07:25:59.544Z,9.678140
2023-08-06T07:26:59.571Z,9.678085
2023-08-06T07:27:59.533Z,9.678114
2023-08-06T07:28:59.568Z,9.678136
2023-08-06T07:29:59.562Z,9.678122
2023-08-06T07:30:59.586Z,9.678096
2023-08-06T07:31:59.619Z,9.678071
2023-08-06T07:32:59.507Z,9.678086
2023-08-06T07:34:00.271Z,9.678082
2023-08-06T07:34:59.698Z,9.678067
2023-08-06T07:35:59.555Z,9.678058
2023-08-06T07:36:59.468Z,9.678076
2023-08-06T07:37:59.462Z,9.678048
2023-08-06T07:38:59.522Z,9.678108
2023-08-06T07:39:59.426Z,9.678063
2023-08-06T07:40:59.429Z,9.678068
2023-08-06T07:41:59.410Z,9.678058
2023-08-06T07:42:59.417Z,9.678046
2023-08-06T07:43:59.439Z,9.678059
2023-08-06T07:44:59.454Z,9.678079
2023-08-06T07:45:59.384Z,9.678057
2023-08-06T07:46:59.388Z,9.678069
2023-08-06T07:47:59.415Z,9.678126
2023-08-06T07:48:59.401Z,9.678103
2023-08-06T07:49:59.352Z,9.678095
2023-08-06T07:50:59.346Z,9.678114
2023-08-06T07:51:59.342Z,9.678090
2023-08-06T07:52:59.389Z,9.678070
2023-08-06T07:53:59.336Z,9.678085
2023-08-06T07:54:59.357Z,9.678095
2023-08-06T07:55:59.308Z,9.678109
2023-08-06T07:56:59.314Z,9.678123
2023-08-06T07:57:59.286Z,9.678072
2023-08-06T07:58:59.288Z,9.678006
2023-08-06T07:59:59.297Z,9.678052
2023-08-06T08:00:59.316Z,9.678065
2023-08-06T08:01:59.282Z,9.678058
2023-08-06T08:02:59.335Z,9.678081
2023-08-06T08:03:59.236Z,9.678102
2023-08-06T08:04:59.241Z,9.678090
2023-08-06T08:05:59.260Z,9.678086
2023-08-06T08:06:59.215Z,9.678082
2023-08-06T08:07:59.214Z,9.678093
2023-08-06T08:08:59.213Z,9.678096
2023-08-06T08:09:59.209Z,9.678089
2023-08-06T08:10:59.245Z,9.678074
2023-08-06T08:12:01.227Z,9.678066
2023-08-06T08:12:59.249Z,9.678082
2023-08-06T08:13:59.163Z,9.678077
2023-08-06T08:14:59.177Z,9.678096
2023-08-06T08:15:59.150Z,9.678121
2023-08-06T08:16:59.163Z,9.678123
2023-08-06T08:17:59.177Z,9.678077
2023-08-06T08:18:59.124Z,9.678077
2023-08-06T08:19:59.107Z,9.678052
2023-08-06T08:20:59.112Z,9.678087
2023-08-06T08:21:59.087Z,9.678128
2023-08-06T08:22:59.117Z,9.678075
2023-08-06T08:23:59.069Z,9.678101
2023-08-06T08:24:59.111Z,9.678128
2023-08-06T08:25:59.099Z,9.678139
2023-08-06T08:26:59.058Z,9.678102
2023-08-06T08:27:59.181Z,9.678131
2023-08-06T08:28:59.042Z,9.678095
2023-08-06T08:29:59.039Z,9.678111
2023-08-06T08:30:59.076Z,9.678123
2023-08-06T08:31:59.009Z,9.678117
2023-08-06T08:32:59.041Z,9.678122
2023-08-06T08:34:00.398Z,9.678143
2023-08-06T08:34:59.034Z,9.678109
2023-08-06T08:35:59.004Z,9.678102
2023-08-06T08:36:58.987Z,9.678105
2023-08-06T08:37:58.950Z,9.678111
2023-08-06T08:38:58.974Z,9.678092
2023-08-06T08:39:58.955Z,9.678089
2023-08-06T08:40:58.978Z,9.678062
2023-08-06T08:41:58.967Z,9.678079
2023-08-06T08:42:58.917Z,9.678102
2023-08-06T08:43:58.928Z,9.678138
2023-08-06T08:44:59.059Z,9.678123
2023-08-06T08:45:58.893Z,9.678096
2023-08-06T08:46:58.878Z,9.678118
2023-08-06T08:47:58.951Z,9.678136
2023-08-06T08:48:58.880Z,9.678119
2023-08-06T08:49:58.860Z,9.678128
2023-08-06T08:50:58.877Z,9.678127
2023-08-06T08:51:58.823Z,9.678121
2023-08-06T08:52:58.825Z,9.678102
2023-08-06T08:53:58.839Z,9.678121
2023-08-06T08:54:58.796Z,9.678147
2023-08-06T08:55:58.804Z,9.678127
2023-08-06T08:56:58.797Z,9.678136
2023-08-06T08:57:59.359Z,9.678112
2023-08-06T08:58:58.795Z,9.678138
2023-08-06T08:59:58.861Z,9.678131
2023-08-06T09:00:58.762Z,9.678133
2023-08-06T09:01:58.936Z,9.678120
2023-08-06T09:02:58.819Z,9.678116
2023-08-06T09:03:58.772Z,9.678083
2023-08-06T09:04:58.723Z,9.678082
2023-08-06T09:05:58.746Z,9.678104
2023-08-06T09:06:58.696Z,9.678120
2023-08-06T09:07:58.700Z,9.678106
2023-08-06T09:08:58.691Z,9.678086
2023-08-06T09:09:58.687Z,9.678129
2023-08-06T09:10:58.669Z,9.678137
2023-08-06T09:11:58.710Z,9.678143
2023-08-06T09:12:58.654Z,9.678166
2023-08-06T09:13:58.655Z,9.678148
2023-08-06T09:14:58.639Z,9.678160
2023-08-06T09:15:58.722Z,9.678155
2023-08-06T09:16:58.684Z,9.678137
2023-08-06T09:17:58.672Z,9.678084
2023-08-06T09:18:58.602Z,9.678104
2023-08-06T09:19:58.608Z,9.678118
2023-08-06T09:20:58.584Z,9.678089
2023-08-06T09:21:58.585Z,9.678122
2023-08-06T09:22:58.558Z,9.678107
2023-08-06T09:23:58.657Z,9.678188
2023-08-06T09:24:58.567Z,9.678140
2023-08-06T09:25:58.554Z,9.678090
2023-08-06T09:26:58.538Z,9.678121
2023-08-06T09:27:58.578Z,9.678109
2023-08-06T09:28:58.525Z,9.678123
2023-08-06T09:29:58.547Z,9.678129
2023-08-06T09:30:58.512Z,9.678103
2023-08-06T09:31:58.905Z,9.678086
2023-08-06T09:32:58.557Z,9.678106
2023-08-06T09:33:58.494Z,9.678108
2023-08-06T09:34:58.570Z,9.678102
2023-08-06T09:35:58.509Z,9.678130
2023-08-06T09:36:58.453Z,9.678158
2023-08-06T09:37:58.458Z,9.678150
2023-08-06T09:38:58.463Z,9.678161
2023-08-06T09:39:58.456Z,9.678139
2023-08-06T09:40:58.505Z,9.678123
2023-08-06T09:41:58.453Z,9.678189
2023-08-06T09:42:58.521Z,9.678201
2023-08-06T09:43:58.450Z,9.678190
2023-08-06T09:44:58.512Z,9.678163
2023-08-06T09:45:58.427Z,9.678158
2023-08-06T09:46:58.383Z,9.678186
2023-08-06T09:47:58.436Z,9.678181
2023-08-06T09:48:58.400Z,9.678111
2023-08-06T09:49:59.496Z,9.678158
2023-08-06T09:50:58.354Z,9.678115
2023-08-06T09:51:58.349Z,9.678174
2023-08-06T09:52:58.336Z,9.678160
2023-08-06T09:53:58.324Z,9.678203
2023-08-06T09:54:58.350Z,9.678157
2023-08-06T09:55:58.322Z,9.678148
2023-08-06T09:56:58.418Z,9.678146
2023-08-06T09:57:58.327Z,9.678110
2023-08-06T09:58:58.335Z,9.678154
2023-08-06T09:59:58.281Z,9.678164
2023-08-06T10:00:58.323Z,9.678101
2023-08-06T10:01:58.498Z,9.678135
2023-08-06T10:02:58.294Z,9.678162
2023-08-06T10:03:58.238Z,9.678141
2023-08-06T10:04:58.228Z,9.678159
2023-08-06T10:05:58.276Z,9.678241
2023-08-06T10:06:58.232Z,9.678201
2023-08-06T10:07:58.233Z,9.678193
2023-08-06T10:08:58.196Z,9.678178
2023-08-06T10:09:58.217Z,9.678234
2023-08-06T10:10:58.185Z,9.678291
2023-08-06T10:11:58.385Z,9.678257
2023-08-06T10:12:58.202Z,9.678178
2023-08-06T10:13:58.219Z,9.678222
2023-08-06T10:14:58.162Z,9.678185
2023-08-06T10:15:58.192Z,9.678215
2023-08-06T10:16:58.133Z,9.678213
2023-08-06T10:17:58.166Z,9.678206
2023-08-06T10:18:58.166Z,9.678187
2023-08-06T10:19:58.104Z,9.678203
2023-08-06T10:20:58.095Z,9.678248
2023-08-06T10:21:58.107Z,9.678238
2023-08-06T10:22:58.076Z,9.678246
2023-08-06T10:23:58.105Z,9.678172
2023-08-06T10:24:58.085Z,9.678205
2023-08-06T10:25:58.068Z,9.678166
2023-08-06T10:26:58.052Z,9.678158
2023-08-06T10:27:58.068Z,9.678160
2023-08-06T10:28:58.055Z,9.678185
2023-08-06T10:29:59.190Z,9.678147
2023-08-06T10:30:58.056Z,9.678154
2023-08-06T10:31:58.015Z,9.678138
2023-08-06T10:32:58.045Z,9.678118
2023-08-06T10:33:58.006Z,9.678137
2023-08-06T10:34:58.017Z,9.678241
2023-08-06T10:35:59.487Z,9.678326
2023-08-06T10:36:57.961Z,9.678250
2023-08-06T10:37:57.996Z,9.678201
2023-08-06T10:38:57.970Z,9.678226
2023-08-06T10:39:57.947Z,9.678317
2023-08-06T10:40:57.980Z,9.678208
2023-08-06T10:42:00.097Z,9.678198
2023-08-06T10:42:57.932Z,9.678177
2023-08-06T10:43:57.974Z,9.678105
2023-08-06T10:44:57.923Z,9.678172
2023-08-06T10:45:57.910Z,9.678099
2023-08-06T10:46:57.914Z,9.678114
2023-08-06T10:47:57.940Z,9.678175
2023-08-06T10:48:57.866Z,9.678240
2023-08-06T10:49:57.884Z,9.678229
2023-08-06T10:50:57.838Z,9.678243
2023-08-06T10:51:57.854Z,9.678298
2023-08-06T10:52:57.895Z,9.678232
2023-08-06T10:53:57.841Z,9.678228
2023-08-06T10:54:57.810Z,9.678213
2023-08-06T10:55:57.906Z,9.678146
2023-08-06T10:56:57.796Z,9.678207
2023-08-06T10:57:57.844Z,9.678238
2023-08-06T10:58:57.794Z,9.678222
2023-08-06T11:00:14.534Z,9.678239
2023-08-06T11:00:58.811Z,9.678239
2023-08-06T11:01:57.779Z,9.678246
2023-08-06T11:02:57.796Z,9.678245
2023-08-06T11:03:57.786Z,9.678222
2023-08-06T11:04:57.733Z,9.678141
2023-08-06T11:05:57.786Z,9.678195
2023-08-06T11:06:57.756Z,9.678154
2023-08-06T11:07:57.906Z,9.678265
2023-08-06T11:08:57.702Z,9.678197
2023-08-06T11:09:57.734Z,9.678194
2023-08-06T11:11:03.477Z,9.678233
2023-08-06T11:11:58.681Z,9.678164
2023-08-06T11:12:57.694Z,9.678184
2023-08-06T11:13:57.669Z,9.678200
2023-08-06T11:14:57.652Z,9.678150
2023-08-06T11:15:57.686Z,9.678142
2023-08-06T11:16:57.663Z,9.678240
2023-08-06T11:17:57.700Z,9.678238
2023-08-06T11:18:57.727Z,9.678239
2023-08-06T11:19:57.630Z,9.678225
2023-08-06T11:20:57.600Z,9.678108
2023-08-06T11:21:57.637Z,9.678044
2023-08-06T11:22:57.575Z,9.678124
2023-08-06T11:23:57.588Z,9.678117
2023-08-06T11:24:57.561Z,9.678163
2023-08-06T11:25:57.559Z,9.678110
2023-08-06T11:26:57.555Z,9.678197
2023-08-06T11:27:57.636Z,9.678191
2023-08-06T11:28:57.538Z,9.678169
2023-08-06T11:29:57.546Z,9.678146
2023-08-06T11:30:57.559Z,9.678123
2023-08-06T11:31:57.560Z,9.678134
2023-08-06T11:32:57.525Z,9.678111
2023-08-06T11:33:57.525Z,9.678162
2023-08-06T11:34:57.493Z,9.678202
2023-08-06T11:35:57.533Z,9.678185
2023-08-06T11:36:57.508Z,9.678201
2023-08-06T11:37:57.472Z,9.678146
2023-08-06T11:38:57.484Z,9.678112
2023-08-06T11:39:57.462Z,9.678092
2023-08-06T11:40:57.475Z,9.678122
2023-08-06T11:41:57.610Z,9.678145
2023-08-06T11:42:57.437Z,9.678140
2023-08-06T11:43:57.507Z,9.678137
2023-08-06T11:44:57.404Z,9.678139
2023-08-06T11:45:57.491Z,9.678167
2023-08-06T11:46:57.715Z,9.678144
2023-08-06T11:47:57.414Z,9.678112